createdAt,value
2022-12-01T00:01:16.038Z,61.03
2022-12-01T00:03:43.017Z,56.40
2022-12-01T00:06:18.628Z,59.65
2022-12-01T00:09:06.231Z,55.30
2022-12-01T00:11:34.332Z,58.60
2022-12-01T00:14:01.396Z,58.85
2022-12-01T00:16:28.367Z,61.87
2022-12-01T00:18:55.070Z,60.38
2022-12-01T00:21:23.769Z,59.42
2022-12-01T00:23:53.066Z,60.60
2022-12-01T00:26:20.669Z,60.10
2022-12-01T00:28:55.138Z,67.83
2022-12-01T00:31:22.169Z,59.33
2022-12-01T00:33:48.836Z,56.95
2022-12-01T00:36:15.533Z,56.78
2022-12-01T00:38:42.196Z,56.60
2022-12-01T00:41:08.845Z,58.97
2022-12-01T00:43:35.566Z,55.17
2022-12-01T00:46:02.556Z,57.83
2022-12-01T00:48:29.219Z,51.15
2022-12-01T00:50:56.289Z,55.50
2022-12-01T00:53:24.466Z,57.00
2022-12-01T00:55:51.217Z,54.65
2022-12-01T00:58:17.829Z,53.83
2022-12-01T01:00:44.382Z,46.97
2022-12-01T01:03:11.405Z,58.05
2022-12-01T01:05:39.620Z,51.97
2022-12-01T01:08:10.897Z,51.97
2022-12-01T01:10:42.166Z,49.95
2022-12-01T01:13:09.886Z,53.17
2022-12-01T01:15:36.775Z,49.58
2022-12-01T01:18:03.743Z,48.63
2022-12-01T01:20:31.056Z,49.03
2022-12-01T01:22:57.857Z,50.05
2022-12-01T01:25:25.181Z,51.67
2022-12-01T01:27:51.758Z,49.85
2022-12-01T01:30:18.625Z,51.97
2022-12-01T01:32:45.257Z,52.13
2022-12-01T01:35:11.991Z,53.05
2022-12-01T01:37:38.541Z,48.70
2022-12-01T01:40:06.013Z,48.67
2022-12-01T01:42:32.614Z,50.27
2022-12-01T01:44:59.273Z,46.25
2022-12-01T01:47:35.871Z,49.95
2022-12-01T01:50:09.040Z,53.17
2022-12-01T01:52:38.525Z,50.85
2022-12-01T01:55:05.978Z,59.93
2022-12-01T01:57:34.709Z,49.60
2022-12-01T02:00:07.955Z,55.92
2022-12-01T02:02:40.672Z,56.80
2022-12-01T02:05:10.959Z,55.15
2022-12-01T02:07:41.901Z,55.87
2022-12-01T02:10:13.054Z,51.70
2022-12-01T02:12:49.713Z,57.25
2022-12-01T02:15:58.376Z,52.20
2022-12-01T02:18:44.037Z,61.30
2022-12-01T02:21:28.678Z,56.33
2022-12-01T02:24:25.165Z,61.58
2022-12-01T02:27:09.268Z,57.20
2022-12-01T02:30:01.086Z,61.63
2022-12-01T02:32:30.897Z,55.47
2022-12-01T02:35:51.777Z,59.87
2022-12-01T02:38:29.726Z,57.88
2022-12-01T02:41:20.250Z,55.42
2022-12-01T02:44:02.079Z,61.03
2022-12-01T02:46:44.499Z,57.55
2022-12-01T02:49:18.627Z,57.07
2022-12-01T02:51:53.270Z,65.75
2022-12-01T02:54:23.844Z,60.15
2022-12-01T02:56:54.775Z,63.55
2022-12-01T02:59:21.897Z,56.17
2022-12-01T03:02:12.756Z,56.10
2022-12-01T03:04:50.021Z,58.28
2022-12-01T03:07:36.157Z,55.90
2022-12-01T03:10:29.800Z,56.92
2022-12-01T03:13:25.425Z,59.42
2022-12-01T03:16:18.356Z,53.27
2022-12-01T03:19:18.839Z,56.05
2022-12-01T03:22:01.306Z,55.47
2022-12-01T03:24:34.584Z,55.25
2022-12-01T03:27:03.441Z,53.88
2022-12-01T03:29:32.475Z,49.03
2022-12-01T03:32:05.959Z,56.88
2022-12-01T03:34:42.525Z,56.63
2022-12-01T03:38:10.988Z,53.20
2022-12-01T03:40:39.225Z,57.78
2022-12-01T03:43:15.693Z,55.83
2022-12-01T03:45:59.365Z,61.72
2022-12-01T03:48:26.901Z,54.92
2022-12-01T03:51:21.951Z,54.53
2022-12-01T03:54:12.702Z,50.42
2022-12-01T03:57:06.584Z,53.53
2022-12-01T04:09:58.567Z,58.30
2022-12-01T04:12:33.663Z,56.47
2022-12-01T04:15:05.936Z,52.85
2022-12-01T04:17:34.809Z,52.08
2022-12-01T04:22:48.112Z,54.65
2022-12-01T04:25:22.897Z,55.90
2022-12-01T04:27:55.028Z,53.53
2022-12-01T04:30:25.087Z,60.72
2022-12-01T04:32:53.280Z,62.20
2022-12-01T04:35:30.490Z,54.88
2022-12-01T04:40:54.636Z,54.85
2022-12-01T04:43:27.108Z,68.57
2022-12-01T04:45:53.697Z,64.28
2022-12-01T04:48:20.237Z,58.10
2022-12-01T04:50:49.281Z,59.83
2022-12-01T04:53:15.898Z,61.97
2022-12-01T04:55:42.475Z,55.75
2022-12-01T04:58:09.036Z,56.22
2022-12-01T05:00:35.620Z,56.15
2022-12-01T05:03:02.391Z,55.40
2022-12-01T05:05:29.775Z,58.28
2022-12-01T05:07:58.148Z,64.65
2022-12-01T05:10:25.433Z,64.93
2022-12-01T05:12:52.057Z,64.70
2022-12-01T05:15:18.877Z,61.90
2022-12-01T05:17:45.512Z,61.80
2022-12-01T05:20:38.746Z,57.00
2022-12-01T05:23:06.458Z,56.90
2022-12-01T05:25:34.116Z,58.72
2022-12-01T05:28:01.122Z,52.70
2022-12-01T05:30:28.900Z,56.22
2022-12-01T05:32:55.694Z,59.78
2022-12-01T05:35:22.345Z,60.17
2022-12-01T05:37:48.909Z,69.00
2022-12-01T05:40:15.551Z,60.87
2022-12-01T05:42:42.090Z,62.75
2022-12-01T05:45:09.172Z,63.38
2022-12-01T05:47:35.728Z,55.47
2022-12-01T05:50:05.758Z,56.50
2022-12-01T05:52:35.134Z,53.30
2022-12-01T05:55:03.624Z,61.10
2022-12-01T05:57:31.295Z,67.75
2022-12-01T05:59:58.264Z,54.17
2022-12-01T06:02:26.747Z,61.67
2022-12-01T06:04:53.830Z,62.20
2022-12-01T06:07:21.045Z,69.60
2022-12-01T06:09:48.008Z,67.05
2022-12-01T06:12:14.935Z,65.78
2022-12-01T06:14:42.049Z,61.28
2022-12-01T06:17:08.637Z,62.60
2022-12-01T06:19:35.505Z,73.43
2022-12-01T06:22:02.292Z,60.70
2022-12-01T06:24:28.901Z,63.05
2022-12-01T06:26:55.475Z,62.88
2022-12-01T06:29:22.053Z,66.93
2022-12-01T06:31:48.698Z,61.45
2022-12-01T06:34:15.282Z,58.97
2022-12-01T06:36:41.834Z,55.90
2022-12-01T06:39:10.066Z,55.75
2022-12-01T06:41:37.603Z,50.37
2022-12-01T06:44:04.943Z,64.15
2022-12-01T06:46:31.733Z,59.90
2022-12-01T06:48:58.372Z,69.50
2022-12-01T06:51:24.946Z,58.17
2022-12-01T06:53:55.106Z,55.80
2022-12-01T06:56:22.592Z,58.45
2022-12-01T06:58:50.413Z,58.72
2022-12-01T07:01:17.960Z,59.45
2022-12-01T07:03:49.151Z,66.35
2022-12-01T07:06:15.966Z,58.97
2022-12-01T07:08:42.573Z,63.67
2022-12-01T07:11:14.614Z,64.55
2022-12-01T07:13:42.696Z,69.13
2022-12-01T07:16:09.727Z,67.78
2022-12-01T07:18:37.061Z,67.50
2022-12-01T07:21:06.958Z,72.22
2022-12-01T07:23:34.059Z,75.10
2022-12-01T07:26:05.117Z,74.85
2022-12-01T07:28:32.119Z,63.30
2022-12-01T07:31:14.423Z,72.10
2022-12-01T07:33:41.358Z,77.50
2022-12-01T07:36:08.981Z,66.22
2022-12-01T07:38:35.981Z,71.85
2022-12-01T07:41:08.555Z,75.07
2022-12-01T07:43:35.745Z,65.00
2022-12-01T07:46:11.224Z,67.82
2022-12-01T07:48:38.987Z,76.57
2022-12-01T07:51:07.583Z,95.72
2022-12-01T07:53:35.018Z,74.38
2022-12-01T07:56:07.048Z,78.40
2022-12-01T07:58:35.359Z,69.05
2022-12-01T08:01:19.579Z,75.60
2022-12-01T08:03:51.522Z,76.20
2022-12-01T08:06:19.393Z,77.50
2022-12-01T08:08:46.085Z,78.93
2022-12-01T08:11:15.514Z,71.28
2022-12-01T08:13:42.995Z,76.05
2022-12-01T08:16:12.159Z,65.18
2022-12-01T08:18:39.849Z,72.25
2022-12-01T08:21:08.003Z,69.17
2022-12-01T08:23:34.671Z,71.78
2022-12-01T08:26:06.404Z,77.30
2022-12-01T08:28:35.312Z,71.53
2022-12-01T08:31:13.342Z,70.15
2022-12-01T08:33:40.628Z,64.37
2022-12-01T08:36:07.657Z,77.70
2022-12-01T08:38:34.385Z,81.63
2022-12-01T08:41:06.658Z,77.43
2022-12-01T08:43:56.460Z,72.78
2022-12-01T08:46:20.784Z,75.67
2022-12-01T08:48:47.451Z,82.43
2022-12-01T08:51:17.565Z,87.20
2022-12-01T08:53:48.015Z,78.68
2022-12-01T08:56:22.057Z,76.88
2022-12-01T08:58:48.865Z,78.50
2022-12-01T09:01:16.297Z,78.75
2022-12-01T09:03:44.026Z,79.45
2022-12-01T09:06:16.495Z,75.47
2022-12-01T09:08:43.747Z,78.97
2022-12-01T09:11:13.313Z,73.70
2022-12-01T09:13:40.818Z,77.43
2022-12-01T09:16:12.713Z,76.97
2022-12-01T09:18:39.429Z,70.80
2022-12-01T09:21:19.832Z,80.72
2022-12-01T09:23:46.799Z,77.93
2022-12-01T09:26:18.083Z,75.40
2022-12-01T09:29:09.097Z,77.38
2022-12-01T09:31:36.318Z,73.45
2022-12-01T09:34:07.647Z,71.65
2022-12-01T09:36:36.421Z,72.57
2022-12-01T09:39:04.046Z,76.88
2022-12-01T09:41:47.661Z,64.63
2022-12-01T09:44:50.798Z,68.93
2022-12-01T09:47:26.187Z,69.05
2022-12-01T09:50:13.126Z,68.43
2022-12-01T09:52:50.216Z,68.43
2022-12-01T09:55:20.007Z,63.20
2022-12-01T09:57:48.601Z,65.38
2022-12-01T10:00:25.275Z,62.20
2022-12-01T10:03:06.923Z,67.23
2022-12-01T10:06:10.349Z,64.88
2022-12-01T10:08:37.434Z,60.35
2022-12-01T10:11:27.382Z,61.13
2022-12-01T10:13:54.044Z,65.05
2022-12-01T10:16:28.415Z,68.70
2022-12-01T10:19:11.141Z,69.88
2022-12-01T10:22:06.597Z,66.55
2022-12-01T10:24:51.792Z,69.43
2022-12-01T10:27:39.071Z,68.43
2022-12-01T10:30:15.325Z,64.70
2022-12-01T10:32:54.978Z,70.18
2022-12-01T10:35:24.885Z,63.50
2022-12-01T10:37:58.534Z,68.97
2022-12-01T10:40:27.073Z,68.07
2022-12-01T10:42:54.211Z,68.53
2022-12-01T10:45:27.542Z,65.25
2022-12-01T10:48:16.837Z,65.90
2022-12-01T10:50:53.571Z,59.53
2022-12-01T10:53:23.212Z,63.63
2022-12-01T10:55:56.215Z,58.57
2022-12-01T10:58:23.125Z,60.00
2022-12-01T11:01:00.340Z,62.67
2022-12-01T11:03:34.520Z,62.97
2022-12-01T11:06:06.011Z,62.05
2022-12-01T11:08:50.441Z,56.97
2022-12-01T11:11:33.279Z,65.95
2022-12-01T11:14:03.590Z,59.55
2022-12-01T11:16:37.555Z,58.25
2022-12-01T11:19:35.159Z,60.83
2022-12-01T11:22:18.545Z,58.33
2022-12-01T11:24:57.407Z,57.20
2022-12-01T11:27:36.313Z,56.20
2022-12-01T11:30:20.283Z,52.97
2022-12-01T11:33:02.950Z,57.35
2022-12-01T11:35:36.495Z,55.17
2022-12-01T11:40:56.058Z,50.53
2022-12-01T11:43:50.556Z,51.90
2022-12-01T11:46:46.253Z,53.78
2022-12-01T11:49:20.718Z,50.77
2022-12-01T11:51:47.742Z,55.05
2022-12-01T11:54:18.528Z,52.47
2022-12-01T11:56:46.721Z,56.45
2022-12-01T11:59:17.762Z,52.03
2022-12-01T12:02:09.517Z,53.33
2022-12-01T12:04:58.194Z,51.90
2022-12-01T12:07:54.861Z,53.05
2022-12-01T12:10:33.643Z,51.15
2022-12-01T12:13:15.575Z,51.38
2022-12-01T12:16:11.457Z,48.13
2022-12-01T12:19:01.526Z,52.75
2022-12-01T12:21:33.822Z,49.42
2022-12-01T12:24:24.743Z,48.80
2022-12-01T12:26:58.115Z,49.20
2022-12-01T12:29:36.745Z,50.77
2022-12-01T12:32:39.309Z,49.92
2022-12-01T12:35:23.739Z,48.72
2022-12-01T12:38:09.260Z,50.90
2022-12-01T12:40:44.539Z,48.40
2022-12-01T12:43:35.108Z,48.33
2022-12-01T12:46:07.324Z,47.10
2022-12-01T12:49:21.056Z,44.55
2022-12-01T12:52:08.184Z,44.45
2022-12-01T12:54:50.488Z,43.72
2022-12-01T12:57:37.832Z,46.87
2022-12-01T13:00:15.878Z,44.60
2022-12-01T13:02:51.421Z,46.35
2022-12-01T13:05:30.816Z,44.65
2022-12-01T13:08:11.105Z,50.03
2022-12-01T13:10:48.956Z,43.50
2022-12-01T13:13:35.318Z,44.00
2022-12-01T13:16:03.362Z,48.92
2022-12-01T13:18:39.746Z,44.38
2022-12-01T13:21:07.149Z,49.63
2022-12-01T13:23:35.998Z,45.27
2022-12-01T13:26:08.035Z,45.42
2022-12-01T13:28:49.051Z,49.22
2022-12-01T13:31:17.793Z,44.13
2022-12-01T13:34:05.867Z,46.80
2022-12-01T13:36:49.227Z,43.77
2022-12-01T13:39:29.337Z,44.83
2022-12-01T13:42:02.915Z,46.00
2022-12-01T13:44:44.692Z,43.00
2022-12-01T13:47:11.261Z,42.67
2022-12-01T13:49:48.672Z,42.47
2022-12-01T13:52:21.689Z,43.58
2022-12-01T13:55:03.493Z,44.42
2022-12-01T13:57:32.818Z,43.55
2022-12-01T13:59:59.366Z,41.38
2022-12-01T14:02:31.547Z,43.97
2022-12-01T14:05:23.221Z,45.67
2022-12-01T14:07:51.775Z,46.92
2022-12-01T14:10:28.623Z,45.53
2022-12-01T14:13:02.950Z,45.35
2022-12-01T14:15:42.450Z,44.67
2022-12-01T14:18:18.423Z,47.63
2022-12-01T14:20:46.967Z,45.47
2022-12-01T14:23:30.443Z,48.53
2022-12-01T14:26:20.614Z,47.13
2022-12-01T14:29:08.741Z,41.00
2022-12-01T14:31:35.351Z,46.95
2022-12-01T14:34:12.131Z,43.35
2022-12-01T14:36:48.137Z,44.75
2022-12-01T14:39:17.933Z,44.88
2022-12-01T14:41:49.968Z,45.53
2022-12-01T14:44:35.756Z,37.95
2022-12-01T14:47:10.597Z,43.80
2022-12-01T14:50:07.429Z,45.45
2022-12-01T14:52:38.415Z,41.75
2022-12-01T14:55:13.291Z,43.93
2022-12-01T14:57:45.826Z,49.03
2022-12-01T15:00:21.294Z,40.33
2022-12-01T15:02:56.499Z,39.50
2022-12-01T15:05:27.301Z,46.97
2022-12-01T15:08:40.273Z,41.07
2022-12-01T15:11:07.921Z,44.53
2022-12-01T15:13:56.934Z,42.15
2022-12-01T15:16:30.855Z,43.97
2022-12-01T15:18:57.693Z,45.13
2022-12-01T15:21:31.834Z,50.87
2022-12-01T15:24:01.138Z,40.92
2022-12-01T15:26:34.961Z,38.55
2022-12-01T15:29:05.783Z,48.58
2022-12-01T15:31:33.889Z,42.17
2022-12-01T15:34:00.741Z,41.37
2022-12-01T15:36:27.485Z,39.28
2022-12-01T15:38:54.473Z,48.20
2022-12-01T15:41:30.566Z,40.88
2022-12-01T15:44:01.828Z,44.05
2022-12-01T15:46:30.668Z,47.77
2022-12-01T15:49:24.146Z,43.83
2022-12-01T15:51:51.809Z,44.50
2022-12-01T15:54:25.314Z,49.15
2022-12-01T15:56:58.481Z,41.97
2022-12-01T15:59:31.413Z,41.80
2022-12-01T16:01:58.467Z,43.75
2022-12-01T16:04:28.486Z,42.78
2022-12-01T16:07:08.064Z,46.30
2022-12-01T16:09:37.210Z,48.22
2022-12-01T16:12:22.098Z,45.10
2022-12-01T16:15:00.865Z,40.67
2022-12-01T16:17:51.662Z,47.42
2022-12-01T16:20:25.815Z,41.28
2022-12-01T16:23:02.290Z,41.50
2022-12-01T16:25:31.856Z,43.50
2022-12-01T16:27:58.713Z,42.63
2022-12-01T16:30:41.416Z,40.92
2022-12-01T16:33:19.979Z,47.70
2022-12-01T16:35:50.427Z,41.13
2022-12-01T16:38:23.340Z,44.93
2022-12-01T16:40:55.422Z,45.92
2022-12-01T16:43:24.542Z,41.22
2022-12-01T16:45:58.856Z,45.47
2022-12-01T16:48:25.598Z,44.13
2022-12-01T16:50:53.329Z,46.03
2022-12-01T16:53:19.878Z,43.45
2022-12-01T16:55:56.569Z,44.72
2022-12-01T16:58:23.554Z,40.92
2022-12-01T17:00:53.465Z,44.78
2022-12-01T17:03:22.156Z,42.43
2022-12-01T17:05:49.354Z,42.80
2022-12-01T17:08:16.863Z,43.90
2022-12-01T17:10:45.460Z,41.22
2022-12-01T17:13:12.764Z,42.00
2022-12-01T17:15:48.463Z,43.73
2022-12-01T17:18:17.426Z,39.97
2022-12-01T17:20:44.271Z,43.67
2022-12-01T17:23:11.503Z,42.70
2022-12-01T17:25:41.858Z,44.05
2022-12-01T17:28:08.434Z,39.60
2022-12-01T17:30:36.862Z,41.22
2022-12-01T17:33:03.830Z,41.03
2022-12-01T17:35:30.463Z,39.20
2022-12-01T17:37:57.076Z,42.47
2022-12-01T17:40:23.977Z,40.37
2022-12-01T17:42:51.025Z,41.70
2022-12-01T17:45:18.743Z,40.50
2022-12-01T17:47:48.242Z,42.30
2022-12-01T17:50:15.012Z,41.35
2022-12-01T17:52:41.747Z,41.00
2022-12-01T17:55:08.868Z,42.58
2022-12-01T17:57:35.505Z,39.67
2022-12-01T18:00:02.364Z,41.67
2022-12-01T18:02:28.913Z,44.03
2022-12-01T18:04:55.566Z,38.23
2022-12-01T18:07:22.348Z,38.22
2022-12-01T18:09:48.950Z,39.95
2022-12-01T18:12:15.545Z,39.10
2022-12-01T18:14:42.170Z,39.75
2022-12-01T18:17:08.815Z,39.70
2022-12-01T18:19:35.497Z,36.30
2022-12-01T18:22:02.206Z,40.15
2022-12-01T18:24:29.497Z,41.50
2022-12-01T18:26:56.503Z,41.22
2022-12-01T18:29:26.307Z,42.27
2022-12-01T18:31:55.169Z,48.25
2022-12-01T18:34:21.835Z,39.35
2022-12-01T18:36:48.594Z,42.33
2022-12-01T18:39:15.255Z,40.13
2022-12-01T18:41:42.089Z,37.57
2022-12-01T18:44:09.025Z,39.47
2022-12-01T18:46:35.798Z,41.72
2022-12-01T18:49:02.967Z,39.47
2022-12-01T18:51:32.862Z,41.45
2022-12-01T18:54:01.176Z,41.27
2022-12-01T18:56:28.362Z,38.17
2022-12-01T18:59:01.383Z,39.63
2022-12-01T19:01:33.866Z,34.38
2022-12-01T19:04:01.229Z,38.95
2022-12-01T19:06:28.905Z,37.03
2022-12-01T19:08:58.268Z,40.22
2022-12-01T19:11:24.874Z,36.22
2022-12-01T19:13:51.579Z,36.10
2022-12-01T19:16:20.017Z,41.53
2022-12-01T19:18:47.621Z,40.40
2022-12-01T19:21:16.676Z,35.05
2022-12-01T19:23:45.040Z,39.72
2022-12-01T19:26:14.149Z,38.67
2022-12-01T19:28:42.222Z,40.88
2022-12-01T19:31:11.284Z,40.00
2022-12-01T19:33:38.568Z,38.58
2022-12-01T19:36:17.571Z,41.00
2022-12-01T19:38:45.034Z,36.00
2022-12-01T19:41:12.880Z,38.05
2022-12-01T19:43:39.950Z,38.20
2022-12-01T19:46:12.600Z,38.95
2022-12-01T19:48:39.693Z,41.78
2022-12-01T19:51:06.823Z,45.10
2022-12-01T19:53:34.278Z,43.58
2022-12-01T19:56:05.329Z,39.80
2022-12-01T19:58:36.312Z,36.40
2022-12-01T20:01:10.120Z,39.70
2022-12-01T20:03:38.014Z,34.13
2022-12-01T20:06:06.821Z,34.78
2022-12-01T20:08:35.858Z,40.17
2022-12-01T20:11:04.203Z,37.08
2022-12-01T20:13:36.255Z,37.28
2022-12-01T20:16:05.690Z,41.72
2022-12-01T20:18:32.473Z,39.08
2022-12-01T20:21:07.428Z,38.23
2022-12-01T20:23:34.898Z,33.85
2022-12-01T20:26:03.680Z,36.88
2022-12-01T20:28:31.216Z,45.00
2022-12-01T20:30:58.677Z,34.83
2022-12-01T20:33:26.381Z,40.13
2022-12-01T20:35:53.126Z,37.20
2022-12-01T20:38:25.815Z,41.72
2022-12-01T20:40:54.252Z,37.47
2022-12-01T20:43:20.873Z,39.92
2022-12-01T20:45:47.577Z,44.00
2022-12-01T20:48:14.265Z,46.28
2022-12-01T20:50:40.893Z,46.70
2022-12-01T20:53:07.768Z,40.40
2022-12-01T20:55:36.651Z,46.47
2022-12-01T20:58:05.089Z,40.67
2022-12-01T21:00:32.137Z,44.60
2022-12-01T21:02:58.894Z,39.50
2022-12-01T21:05:26.642Z,40.92
2022-12-01T21:07:54.045Z,41.75
2022-12-01T21:10:20.839Z,44.40
2022-12-01T21:13:12.609Z,46.55
2022-12-01T21:16:00.098Z,41.03
2022-12-01T21:18:45.960Z,43.00
2022-12-01T21:21:28.951Z,39.97
2022-12-01T21:24:07.522Z,41.17
2022-12-01T21:26:36.433Z,45.30
2022-12-01T21:29:10.517Z,45.28
2022-12-01T21:31:37.144Z,42.88
2022-12-01T21:34:13.892Z,38.83
2022-12-01T21:36:40.458Z,38.97
2022-12-01T21:39:16.474Z,37.83
2022-12-01T21:41:43.201Z,40.05
2022-12-01T21:44:21.265Z,42.80
2022-12-01T21:46:53.357Z,36.25
2022-12-01T21:49:21.789Z,37.63
2022-12-01T21:51:51.621Z,41.22
2022-12-01T21:54:22.362Z,42.17
2022-12-01T21:56:51.114Z,39.05
2022-12-01T21:59:22.841Z,43.30
2022-12-01T22:01:53.824Z,41.60
2022-12-01T22:04:28.644Z,46.35
2022-12-01T22:06:56.977Z,43.97
2022-12-01T22:09:23.550Z,44.17
2022-12-01T22:11:59.551Z,44.72
2022-12-01T22:14:36.380Z,43.17
2022-12-01T22:17:18.390Z,46.42
2022-12-01T22:19:49.618Z,44.75
2022-12-01T22:22:27.219Z,40.50
2022-12-01T22:24:58.199Z,43.92
2022-12-01T22:27:38.918Z,43.57
2022-12-01T22:30:05.418Z,44.03
2022-12-01T22:32:41.229Z,45.78
2022-12-01T22:35:36.279Z,46.33
2022-12-01T22:38:08.729Z,44.17
2022-12-01T22:40:47.037Z,47.27
2022-12-01T22:43:21.043Z,44.25
2022-12-01T22:45:48.804Z,50.13
2022-12-01T22:48:27.650Z,42.38
2022-12-01T22:50:55.206Z,50.95
2022-12-01T22:53:29.261Z,55.63
2022-12-01T22:55:59.441Z,54.03
2022-12-01T22:58:38.527Z,44.70
2022-12-01T23:01:22.390Z,47.80
2022-12-01T23:03:49.450Z,43.92
2022-12-01T23:06:49.190Z,48.13
2022-12-01T23:09:15.950Z,50.53
2022-12-01T23:11:43.967Z,45.17
2022-12-01T23:14:20.886Z,49.28
2022-12-01T23:16:47.473Z,44.53
2022-12-01T23:19:14.324Z,51.87
2022-12-01T23:21:41.021Z,50.17
2022-12-01T23:24:10.739Z,52.85
2022-12-01T23:26:37.320Z,67.65
2022-12-01T23:29:03.849Z,68.60
2022-12-01T23:31:30.551Z,77.97
2022-12-01T23:33:57.139Z,73.40
2022-12-01T23:36:27.517Z,75.63
2022-12-01T23:39:01.638Z,71.88
2022-12-01T23:41:36.011Z,73.65
2022-12-01T23:44:17.638Z,79.07
2022-12-01T23:46:44.974Z,81.28
2022-12-01T23:49:15.797Z,82.13
2022-12-01T23:51:54.697Z,86.60
2022-12-01T23:54:26.449Z,78.20
2022-12-01T23:56:56.322Z,81.60
2022-12-01T23:59:23.669Z,84.70
